Time;durP1;ratioP1;P1;durP2;ratioP2;P2;SDS_P1;SDS_P2;PMS_P1;PMS_P2;Temp;Humidity;BMP_temperature;BMP_pressure;BME280_temperature;BME280_humidity;BME280_pressure;Samples;Min_cycle;Max_cycle;Signal;HPM_P1;HPM_P2
2021/09/28 00:02:09;;;;;;;14.43;7.60;;;17.50;93.00;;;;;;6212264;23;20468;-65
2021/09/28 00:04:38;;;;;;;11.40;7.77;;;17.50;93.40;;;;;;6214667;23;20516;-64
2021/09/28 00:07:07;;;;;;;10.10;6.63;;;17.40;93.30;;;;;;6214514;23;20421;-64
2021/09/28 00:09:34;;;;;;;9.23;8.17;;;17.30;93.40;;;;;;6214449;23;20381;-66
2021/09/28 00:12:01;;;;;;;10.90;7.40;;;17.30;93.60;;;;;;6214515;23;20461;-65
2021/09/28 00:14:32;;;;;;;10.37;7.80;;;17.30;93.50;;;;;;6214749;23;20491;-65
2021/09/28 00:16:59;;;;;;;10.93;8.33;;;17.30;93.50;;;;;;6214266;23;20472;-64
2021/09/28 00:19:26;;;;;;;13.10;7.97;;;17.30;93.20;;;;;;6214871;23;20393;-65
2021/09/28 00:21:53;;;;;;;13.33;8.00;;;17.20;93.10;;;;;;6214231;23;20398;-64
2021/09/28 00:24:27;;;;;;;9.13;7.63;;;17.20;93.00;;;;;;6213472;23;20389;-65
2021/09/28 00:26:56;;;;;;;9.27;7.40;;;17.10;93.00;;;;;;6214638;23;20424;-63
2021/09/28 00:29:23;;;;;;;9.83;8.83;;;17.00;92.90;;;;;;6214082;23;20425;-65
2021/09/28 00:31:50;;;;;;;11.90;7.20;;;17.00;92.70;;;;;;6214434;23;20465;-64
2021/09/28 00:34:22;;;;;;;8.77;7.00;;;17.00;92.90;;;;;;6214495;23;20465;-67
2021/09/28 00:36:49;;;;;;;9.33;7.23;;;16.90;92.80;;;;;;6214216;23;20465;-64
2021/09/28 00:39:16;;;;;;;8.40;6.70;;;16.80;93.00;;;;;;6214091;23;20931;-66
2021/09/28 00:41:44;;;;;;;10.07;8.03;;;16.80;93.30;;;;;;6214625;23;20393;-65
2021/09/28 00:44:11;;;;;;;13.60;7.20;;;16.80;93.30;;;;;;6214724;23;20428;-65
2021/09/28 00:46:38;;;;;;;8.57;7.10;;;16.80;93.30;;;;;;6213649;23;20428;-64
2021/09/28 00:49:05;;;;;;;9.70;8.10;;;16.80;93.30;;;;;;6214769;23;20472;-66
2021/09/28 00:51:32;;;;;;;12.23;10.20;;;16.90;93.10;;;;;;6215863;23;20425;-65
2021/09/28 00:54:00;;;;;;;9.90;7.90;;;16.80;93.00;;;;;;6216765;23;20779;-64
2021/09/28 00:56:27;;;;;;;9.00;7.80;;;16.80;93.10;;;;;;6215233;23;20425;-65
2021/09/28 00:59:00;;;;;;;9.23;6.87;;;16.80;93.20;;;;;;6216529;23;20429;-64
2021/09/28 01:01:28;;;;;;;10.13;7.80;;;16.90;93.30;;;;;;6216497;23;20436;-64
2021/09/28 01:03:55;;;;;;;8.87;7.40;;;16.90;93.30;;;;;;6216609;23;20397;-64
2021/09/28 01:06:22;;;;;;;10.30;8.27;;;17.00;93.30;;;;;;6214420;23;20510;-65
2021/09/28 01:08:50;;;;;;;8.87;6.83;;;17.00;93.10;;;;;;6216005;23;20385;-64
2021/09/28 01:11:19;;;;;;;10.90;8.20;;;17.00;93.20;;;;;;6215499;23;20428;-64
2021/09/28 01:13:47;;;;;;;9.50;7.10;;;17.10;93.30;;;;;;6216251;23;20504;-64
2021/09/28 01:16:16;;;;;;;10.50;7.83;;;17.10;93.00;;;;;;6214129;23;20489;-64
2021/09/28 01:18:44;;;;;;;11.90;7.23;;;17.00;92.90;;;;;;6215885;23;20459;-65
2021/09/28 01:21:13;;;;;;;10.93;7.97;;;17.00;93.00;;;;;;6216196;23;20429;-65
2021/09/28 01:23:47;;;;;;;10.53;8.77;;;17.00;92.90;;;;;;6215725;23;20473;-65
2021/09/28 01:26:17;;;;;;;9.00;8.17;;;17.00;93.10;;;;;;6215435;23;20534;-64
2021/09/28 01:28:44;;;;;;;11.70;8.10;;;16.90;92.90;;;;;;6216289;23;20417;-64
2021/09/28 01:31:12;;;;;;;13.43;7.93;;;16.90;93.20;;;;;;6215193;23;20879;-65
2021/09/28 01:33:39;;;;;;;10.20;7.87;;;17.00;93.20;;;;;;6216326;23;20417;-64
2021/09/28 01:36:12;;;;;;;9.17;7.90;;;17.00;93.30;;;;;;6214970;23;20424;-64
2021/09/28 01:38:39;;;;;;;11.83;9.53;;;17.10;93.70;;;;;;6215859;23;20900;-65
2021/09/28 01:41:06;;;;;;;10.53;8.60;;;17.10;93.30;;;;;;6215250;23;20381;-65
2021/09/28 01:43:33;;;;;;;15.23;8.23;;;17.10;93.20;;;;;;6216219;23;20477;-64
2021/09/28 01:46:06;;;;;;;8.43;6.73;;;17.20;93.30;;;;;;6214168;23;20818;-65
2021/09/28 01:48:37;;;;;;;8.27;6.90;;;17.20;93.20;;;;;;6216170;23;20406;-64
2021/09/28 01:51:04;;;;;;;7.67;6.87;;;17.20;93.10;;;;;;6215351;23;20409;-64
2021/09/28 01:53:33;;;;;;;9.37;7.87;;;17.20;93.10;;;;;;6216075;23;20436;-67
2021/09/28 01:56:01;;;;;;;11.40;6.50;;;17.20;93.10;;;;;;6215025;23;20936;-64
2021/09/28 01:58:28;;;;;;;10.00;8.20;;;17.20;93.10;;;;;;6215620;23;20477;-64
2021/09/28 02:00:57;;;;;;;13.63;7.53;;;17.20;93.10;;;;;;6215532;23;20508;-64
2021/09/28 02:03:24;;;;;;;9.90;6.77;;;17.20;93.00;;;;;;6216002;23;20439;-64
2021/09/28 02:05:52;;;;;;;7.43;6.50;;;17.30;92.90;;;;;;6214223;23;20452;-64
2021/09/28 02:08:19;;;;;;;7.87;6.13;;;17.30;92.80;;;;;;6215463;23;20429;-64
2021/09/28 02:10:47;;;;;;;9.70;6.60;;;17.30;92.90;;;;;;6215263;23;20424;-65
2021/09/28 02:13:14;;;;;;;7.37;6.33;;;17.30;92.90;;;;;;6215793;23;20769;-64
2021/09/28 02:15:41;;;;;;;7.77;6.40;;;17.30;92.90;;;;;;6213643;23;20904;-65
2021/09/28 02:18:09;;;;;;;8.27;6.47;;;17.30;92.80;;;;;;6215341;23;20425;-64
2021/09/28 02:20:36;;;;;;;8.80;6.20;;;17.30;92.60;;;;;;6215387;23;20481;-64
2021/09/28 02:23:03;;;;;;;6.87;6.00;;;17.20;92.70;;;;;;6214735;23;20734;-65
2021/09/28 02:25:30;;;;;;;11.30;7.10;;;17.20;92.70;;;;;;6215507;23;20512;-64
2021/09/28 02:27:58;;;;;;;8.50;6.10;;;17.20;92.70;;;;;;6215001;23;20473;-65
2021/09/28 02:30:25;;;;;;;8.50;6.40;;;17.20;92.80;;;;;;6215844;23;20465;-64
2021/09/28 02:32:57;;;;;;;9.73;6.30;;;17.30;92.90;;;;;;6215039;23;20771;-64
2021/09/28 02:35:24;;;;;;;7.60;6.00;;;17.30;92.70;;;;;;6215833;23;20369;-64
2021/09/28 02:37:53;;;;;;;7.53;6.13;;;17.30;92.60;;;;;;6215180;23;20469;-65
2021/09/28 02:40:20;;;;;;;8.17;6.90;;;17.20;92.50;;;;;;6214421;23;20829;-64
2021/09/28 02:42:47;;;;;;;7.70;6.63;;;17.20;92.60;;;;;;6215193;23;20468;-64
2021/09/28 02:45:15;;;;;;;8.00;6.73;;;17.20;92.70;;;;;;6215456;23;20789;-65
2021/09/28 02:47:42;;;;;;;8.17;6.20;;;17.20;92.70;;;;;;6214985;23;20389;-65
2021/09/28 02:50:11;;;;;;;10.10;7.07;;;17.20;92.70;;;;;;6215707;23;20417;-64
2021/09/28 02:52:39;;;;;;;8.17;6.90;;;17.20;92.70;;;;;;6213956;23;20440;-64
2021/09/28 02:55:07;;;;;;;8.17;7.10;;;17.20;92.70;;;;;;6214777;23;20428;-64
2021/09/28 02:57:34;;;;;;;9.30;6.30;;;17.20;92.70;;;;;;6215539;23;20390;-64
2021/09/28 03:00:01;;;;;;;9.90;7.03;;;17.20;92.80;;;;;;6215097;23;20757;-64
2021/09/28 03:02:33;;;;;;;8.60;6.90;;;17.20;92.80;;;;;;6215128;23;20425;-64
2021/09/28 03:05:00;;;;;;;7.90;6.93;;;17.20;92.80;;;;;;6215072;23;20746;-64
2021/09/28 03:07:27;;;;;;;11.70;8.60;;;17.10;92.70;;;;;;6215591;23;20426;-64
2021/09/28 03:09:55;;;;;;;10.97;7.10;;;17.10;92.90;;;;;;6214800;23;21043;-66
2021/09/28 03:12:22;;;;;;;16.10;8.40;;;17.10;92.90;;;;;;6215118;23;20394;-64
2021/09/28 03:14:54;;;;;;;9.37;7.50;;;17.10;92.80;;;;;;6215095;23;20456;-64
2021/09/28 03:17:21;;;;;;;8.73;6.40;;;17.00;92.70;;;;;;6214588;23;20382;-64
2021/09/28 03:19:59;;;;;;;9.97;6.90;;;17.00;92.70;;;;;;6215196;23;20385;-64
2021/09/28 03:22:26;;;;;;;9.83;7.13;;;17.00;92.90;;;;;;6214660;23;20385;-64
2021/09/28 03:24:53;;;;;;;9.03;6.73;;;17.00;92.80;;;;;;6214698;23;20704;-64
2021/09/28 03:27:21;;;;;;;11.50;7.27;;;16.90;92.90;;;;;;6214789;23;20516;-64
2021/09/28 03:29:48;;;;;;;9.53;7.97;;;16.90;92.90;;;;;;6215210;23;20421;-64
2021/09/28 03:32:15;;;;;;;9.13;7.40;;;16.90;92.90;;;;;;6214331;23;20472;-65
2021/09/28 03:34:42;;;;;;;7.50;6.77;;;16.90;92.80;;;;;;6215177;23;20472;-64
2021/09/28 03:37:10;;;;;;;10.00;6.90;;;16.80;92.80;;;;;;6214935;23;20417;-65
2021/09/28 03:39:37;;;;;;;7.83;5.73;;;16.70;92.80;;;;;;6214375;23;20468;-65
2021/09/28 03:42:05;;;;;;;6.97;6.03;;;16.70;93.00;;;;;;6214718;23;20390;-64
2021/09/28 03:44:32;;;;;;;8.40;6.90;;;16.60;93.10;;;;;;6215203;23;20728;-66
2021/09/28 03:46:59;;;;;;;11.37;9.40;;;16.60;93.40;;;;;;6214674;23;20429;-64
2021/09/28 03:49:26;;;;;;;7.67;6.03;;;16.60;93.50;;;;;;6215014;23;20424;-64
2021/09/28 03:51:55;;;;;;;7.50;5.87;;;16.60;93.60;;;;;;6214113;23;20472;-64
2021/09/28 03:54:23;;;;;;;6.23;5.63;;;16.60;93.80;;;;;;6214444;23;20472;-65
2021/09/28 03:56:50;;;;;;;8.87;6.40;;;16.70;93.80;;;;;;6214211;23;20417;-64
2021/09/28 03:59:17;;;;;;;10.50;6.60;;;16.70;93.90;;;;;;6215168;23;20428;-64
2021/09/28 04:01:50;;;;;;;8.47;6.40;;;16.70;93.80;;;;;;6214756;23;20428;-64
2021/09/28 04:04:17;;;;;;;9.47;5.60;;;16.70;94.00;;;;;;6215242;23;20735;-64
2021/09/28 04:06:46;;;;;;;8.80;6.27;;;16.70;94.00;;;;;;6213949;23;20473;-65
2021/09/28 04:09:13;;;;;;;8.30;6.37;;;16.70;94.10;;;;;;6215251;23;20428;-66
2021/09/28 04:11:41;;;;;;;9.33;6.10;;;16.80;94.10;;;;;;6214850;23;20473;-66
2021/09/28 04:14:10;;;;;;;5.63;5.00;;;16.70;94.10;;;;;;6214982;23;20723;-65
2021/09/28 04:16:37;;;;;;;7.13;6.10;;;16.70;94.30;;;;;;6214038;23;20386;-66
2021/09/28 04:19:05;;;;;;;8.87;7.23;;;16.80;94.50;;;;;;6215249;23;20385;-65
2021/09/28 04:21:32;;;;;;;7.17;5.70;;;16.80;94.50;;;;;;6214954;23;20393;-65
2021/09/28 04:23:59;;;;;;;7.40;5.90;;;16.80;94.50;;;;;;6215344;23;20705;-65
2021/09/28 04:26:26;;;;;;;8.87;7.10;;;16.80;94.60;;;;;;6215982;23;20515;-66
2021/09/28 04:28:57;;;;;;;11.83;7.33;;;16.80;94.50;;;;;;6217196;23;20697;-66
2021/09/28 04:31:25;;;;;;;6.97;5.80;;;16.80;94.70;;;;;;6216912;23;20405;-64
2021/09/28 04:33:55;;;;;;;6.87;5.67;;;16.80;94.80;;;;;;6217201;23;20465;-64
2021/09/28 04:36:24;;;;;;;8.30;5.67;;;16.80;94.80;;;;;;6216789;23;20437;-65
2021/09/28 04:38:51;;;;;;;9.83;5.37;;;16.80;94.80;;;;;;6217114;23;20389;-64
2021/09/28 04:41:23;;;;;;;5.83;4.87;;;16.70;94.70;;;;;;6216287;23;20425;-64
2021/09/28 04:43:50;;;;;;;9.80;5.60;;;16.70;94.70;;;;;;6217204;23;20740;-64
2021/09/28 04:46:18;;;;;;;10.20;6.40;;;16.80;94.60;;;;;;6216507;23;20520;-64
2021/09/28 04:48:46;;;;;;;12.07;5.60;;;16.80;94.50;;;;;;6216567;23;20947;-65
2021/09/28 04:51:13;;;;;;;8.00;5.63;;;16.70;94.30;;;;;;6216197;23;20424;-64
2021/09/28 04:53:45;;;;;;;11.13;6.77;;;16.70;94.50;;;;;;6216938;23;20472;-64
2021/09/28 04:56:13;;;;;;;7.93;6.77;;;16.70;94.40;;;;;;6214727;23;20723;-64
2021/09/28 04:58:40;;;;;;;11.57;7.30;;;16.70;94.30;;;;;;6216935;23;20398;-64
2021/09/28 05:01:07;;;;;;;6.70;6.00;;;16.70;94.20;;;;;;6216471;23;20424;-64
2021/09/28 05:03:36;;;;;;;8.00;6.50;;;16.80;94.20;;;;;;6216557;23;20421;-66
2021/09/28 05:06:03;;;;;;;8.53;7.50;;;16.80;94.20;;;;;;6212995;23;20512;-65
2021/09/28 05:08:30;;;;;;;11.20;7.30;;;16.80;94.30;;;;;;6216351;23;20736;-64
2021/09/28 05:10:59;;;;;;;10.03;7.83;;;16.80;94.20;;;;;;6215627;23;20386;-65
2021/09/28 05:13:31;;;;;;;11.83;7.50;;;16.80;94.20;;;;;;6216050;23;20425;-65
2021/09/28 05:16:00;;;;;;;9.23;8.20;;;16.80;94.30;;;;;;6213586;23;20461;-64
2021/09/28 05:18:28;;;;;;;12.47;8.77;;;16.90;94.30;;;;;;6215643;23;20389;-65
2021/09/28 05:20:56;;;;;;;8.90;7.70;;;16.90;94.40;;;;;;6216040;23;20386;-64
2021/09/28 05:23:25;;;;;;;8.83;7.37;;;16.90;94.20;;;;;;6215794;23;20896;-65
2021/09/28 05:25:52;;;;;;;11.90;7.93;;;17.00;94.40;;;;;;6213275;23;20469;-65
2021/09/28 05:28:19;;;;;;;12.73;9.77;;;17.00;94.30;;;;;;6214267;23;20476;-64
2021/09/28 05:30:46;;;;;;;12.50;9.67;;;17.00;94.40;;;;;;6215520;23;20776;-65
2021/09/28 05:33:16;;;;;;;10.67;9.10;;;17.00;94.40;;;;;;6215234;23;20393;-68
2021/09/28 05:35:43;;;;;;;9.90;8.17;;;17.00;94.50;;;;;;6170056;23;20433;-65
2021/09/28 05:38:12;;;;;;;14.37;10.30;;;17.00;94.60;;;;;;6156128;23;20434;-64
2021/09/28 05:40:39;;;;;;;13.53;11.07;;;17.10;94.80;;;;;;6155871;23;20754;-64
2021/09/28 05:43:06;;;;;;;14.70;10.60;;;17.10;94.90;;;;;;6155852;23;20435;-64
2021/09/28 05:45:33;;;;;;;15.47;11.83;;;17.20;94.80;;;;;;6153792;23;20478;-65
2021/09/28 05:48:00;;;;;;;19.00;12.53;;;17.20;94.60;;;;;;6156235;23;20470;-65
2021/09/28 05:50:27;;;;;;;15.47;11.03;;;17.20;94.60;;;;;;6155828;23;20475;-64
2021/09/28 05:52:56;;;;;;;14.33;11.73;;;17.20;94.70;;;;;;6156134;23;20694;-65
2021/09/28 05:55:25;;;;;;;13.03;10.83;;;17.20;94.80;;;;;;6155220;23;20466;-64
2021/09/28 05:57:52;;;;;;;14.30;10.80;;;17.30;94.90;;;;;;6155693;23;20406;-64
2021/09/28 06:00:19;;;;;;;16.70;12.13;;;17.30;94.80;;;;;;6155609;23;20446;-64
2021/09/28 06:02:46;;;;;;;12.63;10.23;;;17.30;94.60;;;;;;6151159;23;20393;-64
2021/09/28 06:05:13;;;;;;;12.10;9.60;;;17.30;95.00;;;;;;6151741;23;20475;-64
2021/09/28 06:07:40;;;;;;;11.10;7.90;;;17.30;94.50;;;;;;6154944;23;20522;-65
2021/09/28 06:10:07;;;;;;;8.23;6.90;;;17.30;94.40;;;;;;6154756;23;20394;-66
2021/09/28 06:12:36;;;;;;;8.90;6.97;;;17.30;94.10;;;;;;6154964;23;20754;-65
2021/09/28 06:15:04;;;;;;;9.63;6.60;;;17.30;94.00;;;;;;6176002;23;20497;-66
2021/09/28 06:17:31;;;;;;;7.27;6.57;;;17.30;93.90;;;;;;6185261;23;20477;-66
2021/09/28 06:19:58;;;;;;;10.57;7.47;;;17.30;93.70;;;;;;6184462;23;20422;-64
2021/09/28 06:22:25;;;;;;;8.40;6.47;;;17.30;93.60;;;;;;6184903;23;20485;-66
2021/09/28 06:24:55;;;;;;;10.30;6.10;;;17.40;93.50;;;;;;6184539;23;20399;-65
2021/09/28 06:27:23;;;;;;;8.10;6.87;;;17.40;93.50;;;;;;6184687;23;20472;-64
2021/09/28 06:29:52;;;;;;;8.43;6.10;;;17.40;93.50;;;;;;6185726;23;20973;-64
2021/09/28 06:32:22;;;;;;;7.80;5.30;;;17.30;93.30;;;;;;6184561;23;20414;-64
2021/09/28 06:34:50;;;;;;;6.33;5.00;;;17.30;93.40;;;;;;6185546;23;20385;-65
2021/09/28 06:37:17;;;;;;;8.80;5.83;;;17.30;93.50;;;;;;6185411;23;20398;-65
2021/09/28 06:39:44;;;;;;;8.50;5.53;;;17.30;93.60;;;;;;6182611;23;20882;-66
2021/09/28 06:42:11;;;;;;;6.73;4.90;;;17.30;93.70;;;;;;6185216;23;20773;-65
2021/09/28 06:44:38;;;;;;;6.10;4.07;;;17.30;93.70;;;;;;6185512;23;20429;-65
2021/09/28 06:47:06;;;;;;;5.23;3.87;;;17.30;93.70;;;;;;6185432;23;20470;-65
2021/09/28 06:49:34;;;;;;;4.83;3.70;;;17.30;93.70;;;;;;6185574;23;20414;-64
2021/09/28 06:52:06;;;;;;;3.87;3.00;;;17.20;93.50;;;;;;6185701;23;20866;-64
2021/09/28 06:54:33;;;;;;;7.43;3.03;;;17.20;93.50;;;;;;6185573;23;20849;-65
2021/09/28 06:57:00;;;;;;;3.50;2.60;;;17.10;93.40;;;;;;6185927;23;20391;-64
2021/09/28 06:59:28;;;;;;;3.40;2.60;;;17.10;93.50;;;;;;6185453;23;20429;-64
2021/09/28 07:01:55;;;;;;;6.93;2.83;;;17.20;93.50;;;;;;6186060;23;20712;-64
2021/09/28 07:04:23;;;;;;;4.20;3.50;;;17.10;93.50;;;;;;6185739;23;20465;-65
2021/09/28 07:06:50;;;;;;;3.83;2.53;;;17.10;93.50;;;;;;6185280;23;20462;-64
2021/09/28 07:09:19;;;;;;;5.13;2.53;;;17.00;93.60;;;;;;6183179;23;20395;-64
2021/09/28 07:11:46;;;;;;;5.00;2.50;;;17.00;93.80;;;;;;6184981;23;20474;-64
2021/09/28 07:14:19;;;;;;;3.60;2.87;;;17.00;93.70;;;;;;6185144;23;20460;-64
2021/09/28 07:16:47;;;;;;;6.10;2.10;;;17.00;93.70;;;;;;6185549;23;20421;-65
2021/09/28 07:19:19;;;;;;;2.60;1.93;;;17.00;93.60;;;;;;6185670;23;20395;-64
2021/09/28 07:21:48;;;;;;;3.50;1.87;;;17.00;93.70;;;;;;6185586;23;20470;-65
2021/09/28 07:24:19;;;;;;;2.50;1.57;;;17.00;93.80;;;;;;6185518;23;20470;-64
2021/09/28 07:26:47;;;;;;;2.37;1.30;;;17.00;93.60;;;;;;6185162;23;20921;-65
2021/09/28 07:29:14;;;;;;;3.10;1.73;;;17.00;93.70;;;;;;6185583;23;20426;-64
2021/09/28 07:31:41;;;;;;;1.63;0.80;;;17.10;93.50;;;;;;6185224;23;20429;-64
2021/09/28 07:34:09;;;;;;;1.60;0.80;;;17.10;92.70;;;;;;6185090;23;20475;-65
2021/09/28 07:36:36;;;;;;;1.67;0.90;;;17.10;92.30;;;;;;6185427;23;20503;-65
2021/09/28 07:39:06;;;;;;;1.67;0.70;;;17.10;92.20;;;;;;6185337;23;20477;-66
2021/09/28 07:41:33;;;;;;;1.50;0.70;;;17.10;91.80;;;;;;6185191;23;20375;-66
2021/09/28 07:44:00;;;;;;;1.77;0.60;;;17.20;91.70;;;;;;6185347;23;20746;-64
2021/09/28 07:46:27;;;;;;;2.63;0.83;;;17.20;91.30;;;;;;6185412;23;20421;-64
2021/09/28 07:48:54;;;;;;;1.73;0.80;;;17.20;91.20;;;;;;6185067;23;20391;-64
2021/09/28 07:51:21;;;;;;;1.90;1.10;;;17.30;91.20;;;;;;6185355;23;20449;-65
2021/09/28 07:53:49;;;;;;;2.77;1.20;;;17.30;91.30;;;;;;6185000;23;20426;-64
2021/09/28 07:56:18;;;;;;;1.73;1.20;;;17.30;91.30;;;;;;6185311;23;20900;-64
2021/09/28 07:58:45;;;;;;;4.70;1.10;;;17.30;91.30;;;;;;6185146;23;20394;-64
2021/09/28 08:01:12;;;;;;;2.80;1.37;;;17.30;91.40;;;;;;6184952;23;20394;-64
2021/09/28 08:03:39;;;;;;;1.70;1.03;;;17.30;91.30;;;;;;6185286;23;20401;-65
2021/09/28 08:06:11;;;;;;;2.00;1.43;;;17.30;91.00;;;;;;6184939;23;20433;-66
2021/09/28 08:08:42;;;;;;;1.93;1.43;;;17.30;91.20;;;;;;6184936;23;20964;-64
2021/09/28 08:11:09;;;;;;;5.80;1.80;;;17.40;91.10;;;;;;6185411;23;20382;-65
2021/09/28 08:13:37;;;;;;;2.67;1.20;;;17.40;91.00;;;;;;6185162;23;20453;-64
2021/09/28 08:16:06;;;;;;;1.80;1.03;;;17.40;90.80;;;;;;6185579;23;20743;-64
2021/09/28 08:18:38;;;;;;;2.23;1.30;;;17.40;90.80;;;;;;6184835;23;20911;-65
2021/09/28 08:21:05;;;;;;;1.70;0.90;;;17.40;90.60;;;;;;6185399;23;20410;-64
2021/09/28 08:23:36;;;;;;;2.10;1.10;;;17.40;90.20;;;;;;6185324;23;20474;-64
2021/09/28 08:31:29;;;;;;;1.90;1.07;;;17.50;90.20;;;;;;6185183;23;20386;-64
2021/09/28 08:33:56;;;;;;;2.57;1.07;;;17.60;90.20;;;;;;6185320;23;20394;-63
2021/09/28 08:36:27;;;;;;;2.13;1.73;;;17.70;90.00;;;;;;6185114;23;20482;-63
2021/09/28 08:38:54;;;;;;;2.70;0.80;;;17.70;89.50;;;;;;6184583;23;20455;-63
2021/09/28 08:41:22;;;;;;;1.67;1.07;;;17.80;89.50;;;;;;6185164;23;20738;-64
2021/09/28 08:43:51;;;;;;;2.30;0.97;;;17.90;88.90;;;;;;6184695;23;20904;-63
2021/09/28 08:46:21;;;;;;;3.17;1.10;;;18.10;88.60;;;;;;6185163;23;20394;-64
2021/09/28 08:48:49;;;;;;;2.83;1.03;;;18.30;88.40;;;;;;6184646;23;20434;-64
2021/09/28 08:51:16;;;;;;;3.70;0.90;;;18.60;88.50;;;;;;6185223;23;20604;-63
2021/09/28 08:53:43;;;;;;;1.60;0.70;;;19.10;88.00;;;;;;6184752;23;20469;-65
2021/09/28 08:56:11;;;;;;;4.70;1.10;;;19.70;86.70;;;;;;6185241;23;20750;-64
2021/09/28 08:58:57;;;;;;;1.63;0.70;;;20.20;82.90;;;;;;6184870;23;20398;-65
2021/09/28 09:01:26;;;;;;;2.53;0.83;;;20.30;80.40;;;;;;6185159;23;20402;-64
2021/09/28 09:03:53;;;;;;;1.70;0.77;;;20.50;79.50;;;;;;6184737;23;20430;-64
2021/09/28 09:06:32;;;;;;;1.97;1.00;;;20.80;77.10;;;;;;6185120;23;20388;-64
2021/09/28 09:09:02;;;;;;;1.70;0.80;;;21.90;76.80;;;;;;6185058;23;20509;-64
2021/09/28 09:11:36;;;;;;;1.60;0.57;;;24.80;78.10;;;;;;6185685;23;20381;-65
2021/09/28 09:14:15;;;;;;;4.70;0.70;;;28.80;55.90;;;;;;6186196;23;20422;-65
2021/09/28 09:16:48;;;;;;;3.47;0.87;;;32.30;48.60;;;;;;6186755;23;20386;-66
2021/09/28 09:19:24;;;;;;;1.90;0.87;;;34.00;43.20;;;;;;6186464;23;20466;-65
2021/09/28 09:21:52;;;;;;;1.70;0.90;;;34.40;35.20;;;;;;6187298;23;20378;-64
2021/09/28 09:24:42;;;;;;;1.60;0.70;;;33.10;34.10;;;;;;6186263;23;20472;-65
2021/09/28 09:27:10;;;;;;;2.60;0.70;;;31.70;35.30;;;;;;6186686;23;20390;-64
2021/09/28 09:29:39;;;;;;;2.30;0.60;;;30.40;36.60;;;;;;6186784;23;20406;-65
2021/09/28 09:32:06;;;;;;;3.10;1.10;;;29.20;37.70;;;;;;6186323;23;20421;-64
2021/09/28 09:34:38;;;;;;;2.10;1.00;;;28.10;39.00;;;;;;6186688;23;20478;-65
2021/09/28 09:37:10;;;;;;;1.60;0.70;;;27.20;41.60;;;;;;6186710;23;20461;-65
2021/09/28 09:39:55;;;;;;;1.80;0.70;;;26.70;42.90;;;;;;6186522;23;20381;-64
2021/09/28 09:42:26;;;;;;;1.53;0.70;;;26.60;44.90;;;;;;6186216;23;20894;-64
2021/09/28 09:44:54;;;;;;;3.00;1.10;;;27.00;45.60;;;;;;6186721;23;20928;-64
2021/09/28 09:47:30;;;;;;;3.17;0.80;;;29.20;44.10;;;;;;6186039;23;20984;-64
2021/09/28 09:50:13;;;;;;;1.90;1.03;;;30.60;40.20;;;;;;6186431;23;20503;-66
2021/09/28 09:53:07;;;;;;;5.00;1.07;;;31.00;38.80;;;;;;6186621;23;20418;-65
2021/09/28 09:55:38;;;;;;;3.00;0.70;;;31.40;37.30;;;;;;6186414;23;20402;-65
2021/09/28 09:58:06;;;;;;;1.80;0.90;;;31.40;35.50;;;;;;6185946;23;20851;-65
2021/09/28 10:00:34;;;;;;;2.10;0.80;;;30.90;35.10;;;;;;6186374;23;20417;-66
2021/09/28 10:03:07;;;;;;;1.70;0.80;;;30.10;36.60;;;;;;6186487;23;20378;-65
2021/09/28 10:05:36;;;;;;;4.13;0.70;;;29.60;40.00;;;;;;6186616;23;20439;-65
2021/09/28 10:08:07;;;;;;;5.40;1.70;;;32.60;38.30;;;;;;6186439;23;20440;-67
2021/09/28 10:10:35;;;;;;;3.07;1.10;;;35.70;37.30;;;;;;6186275;23;20449;-65
2021/09/28 10:13:49;;;;;;;3.17;1.37;;;37.50;32.00;;;;;;6186453;23;20745;-65
2021/09/28 10:16:39;;;;;;;2.67;0.83;;;39.50;26.50;;;;;;6185042;23;20409;-65
2021/09/28 10:19:40;;;;;;;1.60;0.70;;;38.10;25.10;;;;;;6185938;23;20382;-65
2021/09/28 10:22:08;;;;;;;2.10;0.97;;;36.20;25.60;;;;;;6186296;23;20472;-66
2021/09/28 10:24:36;;;;;;;2.37;1.10;;;34.60;27.20;;;;;;6185892;23;20387;-65
2021/09/28 10:27:29;;;;;;;3.60;1.00;;;33.60;29.50;;;;;;6186176;23;20429;-66
2021/09/28 10:30:02;;;;;;;1.77;0.70;;;36.00;31.20;;;;;;6185758;23;20386;-67
2021/09/28 10:32:49;;;;;;;1.80;0.80;;;40.20;26.30;;;;;;6185867;23;20383;-66
2021/09/28 10:35:20;;;;;;;1.87;0.80;;;43.70;23.20;;;;;;6186430;23;20414;-66
2021/09/28 10:37:53;;;;;;;2.20;0.90;;;45.90;21.00;;;;;;6185958;23;20406;-64
2021/09/28 10:40:49;;;;;;;1.83;0.70;;;47.60;18.90;;;;;;6185494;23;20861;-65
2021/09/28 10:43:30;;;;;;;2.20;0.93;;;47.20;17.10;;;;;;6185554;23;20390;-66
2021/09/28 10:46:00;;;;;;;2.60;0.90;;;45.40;18.20;;;;;;6186014;23;20386;-64
2021/09/28 10:48:37;;;;;;;2.43;0.90;;;45.20;18.20;;;;;;6185482;23;20438;-66
2021/09/28 10:51:15;;;;;;;2.57;0.93;;;44.10;17.50;;;;;;6185927;23;20429;-67
2021/09/28 10:54:05;;;;;;;1.90;1.00;;;42.10;18.50;;;;;;6185450;23;20378;-67
2021/09/28 10:56:32;;;;;;;1.90;0.97;;;40.10;20.50;;;;;;6186001;23;20414;-67
2021/09/28 10:59:02;;;;;;;2.07;0.93;;;39.90;22.80;;;;;;6185545;23;20471;-66
2021/09/28 11:01:33;;;;;;;2.73;0.90;;;41.20;21.40;;;;;;6185929;23;20391;-66
2021/09/28 11:04:25;;;;;;;2.50;0.70;;;41.70;21.00;;;;;;6185596;23;20466;-66
2021/09/28 11:06:59;;;;;;;1.60;0.70;;;43.00;20.20;;;;;;6180605;23;20395;-64
2021/09/28 11:09:43;;;;;;;2.47;1.00;;;43.00;19.80;;;;;;6185667;23;20426;-64
2021/09/28 11:12:10;;;;;;;2.10;1.00;;;44.10;18.90;;;;;;6185295;23;20381;-64
2021/09/28 11:14:39;;;;;;;2.77;2.03;;;45.50;18.20;;;;;;6184900;23;20458;-67
2021/09/28 11:17:12;;;;;;;1.80;0.83;;;44.30;17.60;;;;;;6185384;23;20386;-66
2021/09/28 11:19:41;;;;;;;2.17;0.93;;;44.30;19.30;;;;;;6185251;23;20429;-67
2021/09/28 11:22:11;;;;;;;1.70;0.70;;;46.40;18.20;;;;;;6184760;23;20477;-65
2021/09/28 11:24:39;;;;;;;2.47;1.20;;;48.10;16.70;;;;;;6184816;23;20395;-65
2021/09/28 11:27:10;;;;;;;1.90;1.00;;;49.40;16.70;;;;;;6185458;23;20432;-66
2021/09/28 11:29:38;;;;;;;1.70;1.00;;;50.40;15.10;;;;;;6184882;23;20426;-65
2021/09/28 11:32:07;;;;;;;2.53;1.03;;;50.90;15.10;;;;;;6184681;23;20950;-66
2021/09/28 11:34:35;;;;;;;1.50;0.63;;;51.70;14.00;;;;;;6184926;23;20469;-66
2021/09/28 11:37:06;;;;;;;1.90;0.90;;;52.20;13.40;;;;;;6184641;23;20434;-65
2021/09/28 11:39:45;;;;;;;1.70;0.83;;;50.60;12.70;;;;;;6181871;23;20390;-67
2021/09/28 11:42:14;;;;;;;2.63;1.00;;;48.70;13.40;;;;;;6184655;23;20735;-65
2021/09/28 11:44:50;;;;;;;2.03;1.13;;;46.40;14.00;;;;;;6185164;23;20414;-66
2021/09/28 11:47:23;;;;;;;1.70;0.77;;;43.30;15.80;;;;;;6184011;23;20433;-64
2021/09/28 11:50:02;;;;;;;1.97;1.00;;;40.60;17.70;;;;;;6184281;23;20438;-64
2021/09/28 11:52:31;;;;;;;2.63;1.00;;;38.00;19.70;;;;;;6184813;23;20417;-64
2021/09/28 11:54:58;;;;;;;2.67;0.70;;;36.20;21.80;;;;;;6185105;23;20474;-64
2021/09/28 11:57:26;;;;;;;2.63;0.90;;;34.60;23.50;;;;;;6184657;23;20694;-64
2021/09/28 11:59:54;;;;;;;1.63;0.80;;;33.30;25.10;;;;;;6184681;23;20435;-64
2021/09/28 12:02:23;;;;;;;1.87;1.00;;;32.20;26.50;;;;;;6185198;23;20470;-64
2021/09/28 12:07:59;;;;;;;1.70;0.93;;;30.50;29.40;;;;;;6185238;23;20369;-66
2021/09/28 12:10:27;;;;;;;1.93;0.83;;;29.80;30.70;;;;;;6184862;23;20378;-64
2021/09/28 12:12:54;;;;;;;1.90;0.73;;;29.70;31.80;;;;;;6184852;23;20565;-64
2021/09/28 12:15:22;;;;;;;2.50;1.00;;;29.20;32.00;;;;;;6184665;23;20559;-64
2021/09/28 12:17:50;;;;;;;2.20;1.10;;;28.70;33.10;;;;;;6185304;23;20421;-64
2021/09/28 12:20:21;;;;;;;2.03;1.07;;;28.30;34.60;;;;;;6185289;23;20401;-64
2021/09/28 12:22:52;;;;;;;2.43;0.80;;;27.90;35.30;;;;;;6185328;23;20383;-64
2021/09/28 12:25:22;;;;;;;2.77;1.20;;;27.50;35.70;;;;;;6185394;23;20437;-64
2021/09/28 12:27:58;;;;;;;2.70;1.00;;;27.00;36.60;;;;;;6185262;23;20741;-63
2021/09/28 12:30:26;;;;;;;2.17;0.93;;;26.60;38.00;;;;;;6185203;23;20382;-64
2021/09/28 12:32:54;;;;;;;3.67;1.17;;;26.30;38.60;;;;;;6184744;23;20393;-64
2021/09/28 12:35:26;;;;;;;2.57;0.93;;;26.00;39.60;;;;;;6185177;23;20429;-64
2021/09/28 12:37:58;;;;;;;3.43;1.30;;;25.80;40.00;;;;;;6185236;23;20718;-63
2021/09/28 12:40:26;;;;;;;2.00;0.90;;;25.80;41.30;;;;;;6184768;23;20402;-63
2021/09/28 12:43:05;;;;;;;1.77;0.80;;;25.80;40.80;;;;;;6185240;23;20465;-64
2021/09/28 12:45:44;;;;;;;2.17;1.17;;;25.70;41.30;;;;;;6185211;23;20400;-63
2021/09/28 12:48:12;;;;;;;2.83;0.87;;;25.50;41.60;;;;;;6186612;23;20422;-64
2021/09/28 12:50:40;;;;;;;1.90;1.00;;;25.30;42.60;;;;;;6187075;23;20398;-64
2021/09/28 12:53:10;;;;;;;1.70;0.80;;;25.20;42.90;;;;;;6187199;23;20407;-64
2021/09/28 12:55:38;;;;;;;1.80;1.00;;;25.20;43.40;;;;;;6186628;23;20846;-64
2021/09/28 12:58:06;;;;;;;2.83;1.00;;;25.10;43.60;;;;;;6186668;23;20474;-63
2021/09/28 13:00:33;;;;;;;3.97;0.90;;;25.00;44.00;;;;;;6187008;23;20429;-65
2021/09/28 13:03:02;;;;;;;3.00;0.90;;;24.80;43.80;;;;;;6187112;23;21143;-64
2021/09/28 13:05:31;;;;;;;2.10;0.90;;;24.70;43.90;;;;;;6186989;23;20394;-65
2021/09/28 13:07:58;;;;;;;2.53;1.20;;;24.60;44.20;;;;;;6186990;23;20390;-65